sensor_id;sensor_type;location;lat;lon;timestamp;temperature;humidity
12053;DHT22;6087;48.982;12.064;2023-04-23T00:00:24;14.90;99.90
12053;DHT22;6087;48.982;12.064;2023-04-23T00:02:53;14.90;99.90
12053;DHT22;6087;48.982;12.064;2023-04-23T00:05:21;14.90;99.90
12053;DHT22;6087;48.982;12.064;2023-04-23T00:07:51;14.80;99.90
12053;DHT22;6087;48.982;12.064;2023-04-23T00:10:18;14.80;1.00
12053;DHT22;6087;48.982;12.064;2023-04-23T00:12:46;14.80;1.00
12053;DHT22;6087;48.982;12.064;2023-04-23T00:15:13;14.80;1.00
12053;DHT22;6087;48.982;12.064;2023-04-23T00:17:40;14.80;1.00
12053;DHT22;6087;48.982;12.064;2023-04-23T00:20:12;14.90;1.00
12053;DHT22;6087;48.982;12.064;2023-04-23T00:22:39;14.90;99.90
12053;DHT22;6087;48.982;12.064;2023-04-23T00:25:07;14.80;99.90
12053;DHT22;6087;48.982;12.064;2023-04-23T00:27:34;14.80;1.00
12053;DHT22;6087;48.982;12.064;2023-04-23T00:30:01;14.80;1.00
12053;DHT22;6087;48.982;12.064;2023-04-23T00:32:28;14.70;1.00
12053;DHT22;6087;48.982;12.064;2023-04-23T00:34:55;14.60;1.00
12053;DHT22;6087;48.982;12.064;2023-04-23T00:37:23;14.50;1.00
12053;DHT22;6087;48.982;12.064;2023-04-23T00:39:50;14.50;1.00
12053;DHT22;6087;48.982;12.064;2023-04-23T00:42:17;14.50;1.00
12053;DHT22;6087;48.982;12.064;2023-04-23T00:44:44;14.50;1.00
12053;DHT22;6087;48.982;12.064;2023-04-23T00:47:13;14.60;99.90
12053;DHT22;6087;48.982;12.064;2023-04-23T00:49:41;14.60;99.90
12053;DHT22;6087;48.982;12.064;2023-04-23T00:52:10;14.70;99.90
12053;DHT22;6087;48.982;12.064;2023-04-23T00:54:38;14.60;1.00
12053;DHT22;6087;48.982;12.064;2023-04-23T00:57:05;14.60;1.00
12053;DHT22;6087;48.982;12.064;2023-04-23T00:59:35;14.50;1.00
12053;DHT22;6087;48.982;12.064;2023-04-23T01:02:02;14.50;1.00
12053;DHT22;6087;48.982;12.064;2023-04-23T01:04:31;14.40;1.00
12053;DHT22;6087;48.982;12.064;2023-04-23T01:06:58;14.40;1.00
12053;DHT22;6087;48.982;12.064;2023-04-23T01:09:26;14.40;1.00
12053;DHT22;6087;48.982;12.064;2023-04-23T01:12:00;14.30;1.00
12053;DHT22;6087;48.982;12.064;2023-04-23T01:14:31;14.40;1.00
12053;DHT22;6087;48.982;12.064;2023-04-23T01:17:11;14.30;1.00
12053;DHT22;6087;48.982;12.064;2023-04-23T01:19:39;14.30;1.00
12053;DHT22;6087;48.982;12.064;2023-04-23T01:22:09;14.20;1.00
12053;DHT22;6087;48.982;12.064;2023-04-23T01:24:37;14.10;1.00
12053;DHT22;6087;48.982;12.064;2023-04-23T01:27:04;14.20;1.00
12053;DHT22;6087;48.982;12.064;2023-04-23T01:29:32;14.20;1.00
12053;DHT22;6087;48.982;12.064;2023-04-23T01:32:00;14.20;1.00
12053;DHT22;6087;48.982;12.064;2023-04-23T01:34:28;14.20;1.00
12053;DHT22;6087;48.982;12.064;2023-04-23T01:36:56;14.20;1.00
12053;DHT22;6087;48.982;12.064;2023-04-23T01:39:25;14.20;1.00
12053;DHT22;6087;48.982;12.064;2023-04-23T01:41:53;14.10;1.00
12053;DHT22;6087;48.982;12.064;2023-04-23T01:44:20;14.20;1.00
12053;DHT22;6087;48.982;12.064;2023-04-23T01:46:47;14.10;99.90
12053;DHT22;6087;48.982;12.064;2023-04-23T01:49:14;14.10;99.90
12053;DHT22;6087;48.982;12.064;2023-04-23T01:51:42;14.10;99.90
12053;DHT22;6087;48.982;12.064;2023-04-23T01:54:09;14.00;99.90
12053;DHT22;6087;48.982;12.064;2023-04-23T01:56:37;14.00;99.90
12053;DHT22;6087;48.982;12.064;2023-04-23T01:59:04;14.10;99.90
12053;DHT22;6087;48.982;12.064;2023-04-23T02:01:41;14.10;99.90
12053;DHT22;6087;48.982;12.064;2023-04-23T02:04:10;14.10;99.90
12053;DHT22;6087;48.982;12.064;2023-04-23T02:06:38;14.10;99.90
12053;DHT22;6087;48.982;12.064;2023-04-23T02:09:06;14.00;99.90
12053;DHT22;6087;48.982;12.064;2023-04-23T02:11:33;14.00;1.00
12053;DHT22;6087;48.982;12.064;2023-04-23T02:14:03;14.00;99.90
12053;DHT22;6087;48.982;12.064;2023-04-23T02:16:30;14.00;1.00
12053;DHT22;6087;48.982;12.064;2023-04-23T02:18:57;14.00;1.00
12053;DHT22;6087;48.982;12.064;2023-04-23T02:21:24;14.00;1.00
12053;DHT22;6087;48.982;12.064;2023-04-23T02:23:51;14.00;3.80
12053;DHT22;6087;48.982;12.064;2023-04-23T02:26:18;14.10;1.00
12053;DHT22;6087;48.982;12.064;2023-04-23T02:28:47;14.10;1.00
12053;DHT22;6087;48.982;12.064;2023-04-23T02:31:15;14.10;1.00
12053;DHT22;6087;48.982;12.064;2023-04-23T02:33:43;14.10;1.00
12053;DHT22;6087;48.982;12.064;2023-04-23T02:36:20;14.00;99.80
12053;DHT22;6087;48.982;12.064;2023-04-23T02:38:47;14.00;99.90
12053;DHT22;6087;48.982;12.064;2023-04-23T02:41:15;14.00;99.90
12053;DHT22;6087;48.982;12.064;2023-04-23T02:43:45;14.00;99.90
12053;DHT22;6087;48.982;12.064;2023-04-23T02:46:12;14.00;99.90
12053;DHT22;6087;48.982;12.064;2023-04-23T02:48:40;14.00;52.60
12053;DHT22;6087;48.982;12.064;2023-04-23T02:51:09;14.00;1.00
12053;DHT22;6087;48.982;12.064;2023-04-23T02:53:37;14.00;1.00
12053;DHT22;6087;48.982;12.064;2023-04-23T02:56:04;14.10;1.00
12053;DHT22;6087;48.982;12.064;2023-04-23T02:58:31;14.10;1.00
12053;DHT22;6087;48.982;12.064;2023-04-23T03:00:59;14.10;1.00
12053;DHT22;6087;48.982;12.064;2023-04-23T03:03:27;14.10;1.00
12053;DHT22;6087;48.982;12.064;2023-04-23T03:05:58;14.10;1.00
12053;DHT22;6087;48.982;12.064;2023-04-23T03:08:26;14.20;1.00
12053;DHT22;6087;48.982;12.064;2023-04-23T03:10:59;14.20;99.90
12053;DHT22;6087;48.982;12.064;2023-04-23T03:13:26;14.20;99.90
12053;DHT22;6087;48.982;12.064;2023-04-23T03:15:53;14.20;99.90
12053;DHT22;6087;48.982;12.064;2023-04-23T03:18:23;14.20;99.90
12053;DHT22;6087;48.982;12.064;2023-04-23T03:20:50;14.20;99.90
12053;DHT22;6087;48.982;12.064;2023-04-23T03:23:19;14.20;99.90
12053;DHT22;6087;48.982;12.064;2023-04-23T03:25:46;14.20;99.90
12053;DHT22;6087;48.982;12.064;2023-04-23T03:28:19;14.20;99.90
12053;DHT22;6087;48.982;12.064;2023-04-23T03:30:46;14.30;99.90
12053;DHT22;6087;48.982;12.064;2023-04-23T03:33:19;14.30;99.90
12053;DHT22;6087;48.982;12.064;2023-04-23T03:35:46;14.20;99.90
12053;DHT22;6087;48.982;12.064;2023-04-23T03:38:13;14.20;99.90
12053;DHT22;6087;48.982;12.064;2023-04-23T03:40:42;14.10;99.90
12053;DHT22;6087;48.982;12.064;2023-04-23T03:43:09;14.10;99.90
12053;DHT22;6087;48.982;12.064;2023-04-23T03:45:39;14.10;99.90
12053;DHT22;6087;48.982;12.064;2023-04-23T03:48:06;14.10;99.90
12053;DHT22;6087;48.982;12.064;2023-04-23T03:50:33;14.00;99.90
12053;DHT22;6087;48.982;12.064;2023-04-23T03:53:03;14.00;1.00
12053;DHT22;6087;48.982;12.064;2023-04-23T03:55:30;13.90;1.00
12053;DHT22;6087;48.982;12.064;2023-04-23T03:57:59;13.90;1.00
12053;DHT22;6087;48.982;12.064;2023-04-23T04:00:26;13.90;1.00
12053;DHT22;6087;48.982;12.064;2023-04-23T04:03:02;14.00;1.00
12053;DHT22;6087;48.982;12.064;2023-04-23T04:05:29;14.00;1.00
12053;DHT22;6087;48.982;12.064;2023-04-23T04:08:02;14.00;1.00
12053;DHT22;6087;48.982;12.064;2023-04-23T04:10:29;14.00;1.00
12053;DHT22;6087;48.982;12.064;2023-04-23T04:12:56;14.10;1.00
12053;DHT22;6087;48.982;12.064;2023-04-23T04:15:25;14.10;1.00
12053;DHT22;6087;48.982;12.064;2023-04-23T04:17:52;14.10;1.00
12053;DHT22;6087;48.982;12.064;2023-04-23T04:20:19;14.10;1.00
12053;DHT22;6087;48.982;12.064;2023-04-23T04:22:46;14.10;1.00
12053;DHT22;6087;48.982;12.064;2023-04-23T04:25:19;14.10;1.00
12053;DHT22;6087;48.982;12.064;2023-04-23T04:27:46;14.00;1.00
12053;DHT22;6087;48.982;12.064;2023-04-23T04:30:14;14.00;99.90
12053;DHT22;6087;48.982;12.064;2023-04-23T04:32:42;13.90;99.90
12053;DHT22;6087;48.982;12.064;2023-04-23T04:35:10;13.90;99.90
12053;DHT22;6087;48.982;12.064;2023-04-23T04:37:40;13.80;99.90
12053;DHT22;6087;48.982;12.064;2023-04-23T04:40:09;13.80;99.90
12053;DHT22;6087;48.982;12.064;2023-04-23T04:42:37;13.70;99.90
12053;DHT22;6087;48.982;12.064;2023-04-23T04:45:05;13.70;99.90
12053;DHT22;6087;48.982;12.064;2023-04-23T04:47:33;13.70;99.90
12053;DHT22;6087;48.982;12.064;2023-04-23T04:50:02;13.70;1.00
12053;DHT22;6087;48.982;12.064;2023-04-23T04:52:29;13.60;1.00
12053;DHT22;6087;48.982;12.064;2023-04-23T04:54:56;13.60;1.00
12053;DHT22;6087;48.982;12.064;2023-04-23T04:57:23;13.60;1.00
12053;DHT22;6087;48.982;12.064;2023-04-23T04:59:52;13.60;1.00
12053;DHT22;6087;48.982;12.064;2023-04-23T05:02:19;13.60;1.00
12053;DHT22;6087;48.982;12.064;2023-04-23T05:04:47;13.60;1.00
12053;DHT22;6087;48.982;12.064;2023-04-23T05:07:16;13.50;1.00
12053;DHT22;6087;48.982;12.064;2023-04-23T05:09:52;13.50;1.00
12053;DHT22;6087;48.982;12.064;2023-04-23T05:12:19;13.50;1.00
12053;DHT22;6087;48.982;12.064;2023-04-23T05:14:45;13.50;1.00
12053;DHT22;6087;48.982;12.064;2023-04-23T05:17:12;13.50;1.00
12053;DHT22;6087;48.982;12.064;2023-04-23T05:19:39;13.50;1.00
12053;DHT22;6087;48.982;12.064;2023-04-23T05:22:06;13.60;1.00
12053;DHT22;6087;48.982;12.064;2023-04-23T05:24:35;13.60;1.00
12053;DHT22;6087;48.982;12.064;2023-04-23T05:27:01;13.50;1.00
12053;DHT22;6087;48.982;12.064;2023-04-23T05:29:29;13.60;1.00
12053;DHT22;6087;48.982;12.064;2023-04-23T05:31:56;13.60;1.00
12053;DHT22;6087;48.982;12.064;2023-04-23T05:34:23;13.50;1.00
12053;DHT22;6087;48.982;12.064;2023-04-23T05:36:50;13.50;1.00
12053;DHT22;6087;48.982;12.064;2023-04-23T05:39:16;13.50;1.00
12053;DHT22;6087;48.982;12.064;2023-04-23T05:41:45;13.40;32.20
12053;DHT22;6087;48.982;12.064;2023-04-23T05:44:12;13.40;99.90
12053;DHT22;6087;48.982;12.064;2023-04-23T05:46:39;13.30;1.00
12053;DHT22;6087;48.982;12.064;2023-04-23T05:49:06;13.30;1.00
12053;DHT22;6087;48.982;12.064;2023-04-23T05:51:33;13.30;1.00
12053;DHT22;6087;48.982;12.064;2023-04-23T05:54:00;13.20;1.00
12053;DHT22;6087;48.982;12.064;2023-04-23T05:56:32;13.10;1.00
12053;DHT22;6087;48.982;12.064;2023-04-23T05:59:00;13.10;99.90
12053;DHT22;6087;48.982;12.064;2023-04-23T06:01:30;13.10;1.00
12053;DHT22;6087;48.982;12.064;2023-04-23T06:03:57;13.10;1.00
12053;DHT22;6087;48.982;12.064;2023-04-23T06:06:24;13.10;99.90
12053;DHT22;6087;48.982;12.064;2023-04-23T06:08:52;13.10;99.90
12053;DHT22;6087;48.982;12.064;2023-04-23T06:11:19;13.00;1.00
12053;DHT22;6087;48.982;12.064;2023-04-23T06:13:46;13.10;1.00
12053;DHT22;6087;48.982;12.064;2023-04-23T06:16:15;13.10;1.00
12053;DHT22;6087;48.982;12.064;2023-04-23T06:18:48;13.10;1.00
12053;DHT22;6087;48.982;12.064;2023-04-23T06:21:15;13.10;99.90
12053;DHT22;6087;48.982;12.064;2023-04-23T06:23:45;13.20;68.80
12053;DHT22;6087;48.982;12.064;2023-04-23T06:26:12;13.20;99.90
12053;DHT22;6087;48.982;12.064;2023-04-23T06:28:40;13.20;93.70
12053;DHT22;6087;48.982;12.064;2023-04-23T06:31:07;13.20;1.00
12053;DHT22;6087;48.982;12.064;2023-04-23T06:33:36;13.10;1.00
12053;DHT22;6087;48.982;12.064;2023-04-23T06:36:03;13.10;99.90
12053;DHT22;6087;48.982;12.064;2023-04-23T06:38:31;13.10;1.00
12053;DHT22;6087;48.982;12.064;2023-04-23T06:40:58;13.00;99.90
12053;DHT22;6087;48.982;12.064;2023-04-23T06:43:25;13.10;1.00
12053;DHT22;6087;48.982;12.064;2023-04-23T06:45:52;13.10;1.00
12053;DHT22;6087;48.982;12.064;2023-04-23T06:48:19;13.10;1.00
12053;DHT22;6087;48.982;12.064;2023-04-23T06:50:48;13.20;1.00
12053;DHT22;6087;48.982;12.064;2023-04-23T06:53:15;13.20;1.00
12053;DHT22;6087;48.982;12.064;2023-04-23T06:55:42;13.20;99.90
12053;DHT22;6087;48.982;12.064;2023-04-23T06:58:10;13.20;99.90
12053;DHT22;6087;48.982;12.064;2023-04-23T07:00:37;13.10;1.00
12053;DHT22;6087;48.982;12.064;2023-04-23T07:03:04;13.20;99.90
12053;DHT22;6087;48.982;12.064;2023-04-23T07:05:30;13.20;1.00
12053;DHT22;6087;48.982;12.064;2023-04-23T07:08:04;13.10;1.00
12053;DHT22;6087;48.982;12.064;2023-04-23T07:10:31;13.20;4.90
12053;DHT22;6087;48.982;12.064;2023-04-23T07:12:58;13.20;87.80
12053;DHT22;6087;48.982;12.064;2023-04-23T07:15:25;13.20;1.00
12053;DHT22;6087;48.982;12.064;2023-04-23T07:17:52;13.10;1.00
12053;DHT22;6087;48.982;12.064;2023-04-23T07:20:19;13.10;99.90
12053;DHT22;6087;48.982;12.064;2023-04-23T07:22:46;13.00;33.80
12053;DHT22;6087;48.982;12.064;2023-04-23T07:25:15;13.00;99.90
12053;DHT22;6087;48.982;12.064;2023-04-23T07:27:43;12.90;1.00
12053;DHT22;6087;48.982;12.064;2023-04-23T07:30:11;12.90;99.90
12053;DHT22;6087;48.982;12.064;2023-04-23T07:32:38;12.90;1.00
12053;DHT22;6087;48.982;12.064;2023-04-23T07:35:05;12.80;1.00
12053;DHT22;6087;48.982;12.064;2023-04-23T07:37:33;12.80;1.00
12053;DHT22;6087;48.982;12.064;2023-04-23T07:39:59;12.70;99.90
12053;DHT22;6087;48.982;12.064;2023-04-23T07:42:28;12.70;22.30
12053;DHT22;6087;48.982;12.064;2023-04-23T07:44:58;12.70;1.00
12053;DHT22;6087;48.982;12.064;2023-04-23T07:47:25;12.80;1.00
12053;DHT22;6087;48.982;12.064;2023-04-23T07:49:52;12.80;1.00
12053;DHT22;6087;48.982;12.064;2023-04-23T07:52:19;12.80;99.90
12053;DHT22;6087;48.982;12.064;2023-04-23T07:54:45;12.80;99.90
12053;DHT22;6087;48.982;12.064;2023-04-23T07:57:12;12.70;99.90
12053;DHT22;6087;48.982;12.064;2023-04-23T07:59:42;12.70;99.90
12053;DHT22;6087;48.982;12.064;2023-04-23T08:02:09;12.60;99.90
12053;DHT22;6087;48.982;12.064;2023-04-23T08:04:36;12.70;1.00
12053;DHT22;6087;48.982;12.064;2023-04-23T08:07:02;12.70;1.00
12053;DHT22;6087;48.982;12.064;2023-04-23T08:09:29;12.70;1.00
12053;DHT22;6087;48.982;12.064;2023-04-23T08:11:56;12.70;1.00
12053;DHT22;6087;48.982;12.064;2023-04-23T08:14:23;12.60;1.00
12053;DHT22;6087;48.982;12.064;2023-04-23T08:16:51;12.50;1.00
12053;DHT22;6087;48.982;12.064;2023-04-23T08:19:18;12.50;1.00
12053;DHT22;6087;48.982;12.064;2023-04-23T08:21:48;12.50;1.00
12053;DHT22;6087;48.982;12.064;2023-04-23T08:24:16;12.50;1.00
12053;DHT22;6087;48.982;12.064;2023-04-23T08:26:46;12.60;1.00
12053;DHT22;6087;48.982;12.064;2023-04-23T08:29:14;12.70;1.00
12053;DHT22;6087;48.982;12.064;2023-04-23T08:31:41;12.80;1.00
12053;DHT22;6087;48.982;12.064;2023-04-23T08:34:09;12.80;1.00
12053;DHT22;6087;48.982;12.064;2023-04-23T08:36:36;12.80;1.00
12053;DHT22;6087;48.982;12.064;2023-04-23T08:39:03;12.80;1.00
12053;DHT22;6087;48.982;12.064;2023-04-23T08:41:34;12.90;1.00
12053;DHT22;6087;48.982;12.064;2023-04-23T08:44:11;12.80;1.00
12053;DHT22;6087;48.982;12.064;2023-04-23T08:46:41;12.70;1.00
12053;DHT22;6087;48.982;12.064;2023-04-23T08:49:13;12.70;1.00
12053;DHT22;6087;48.982;12.064;2023-04-23T08:51:47;12.70;1.00
12053;DHT22;6087;48.982;12.064;2023-04-23T08:54:18;12.70;1.00
12053;DHT22;6087;48.982;12.064;2023-04-23T08:56:48;12.70;1.00
12053;DHT22;6087;48.982;12.064;2023-04-23T08:59:17;12.70;1.00
12053;DHT22;6087;48.982;12.064;2023-04-23T09:01:46;12.70;1.00
12053;DHT22;6087;48.982;12.064;2023-04-23T09:04:14;12.70;1.00
12053;DHT22;6087;48.982;12.064;2023-04-23T09:06:44;12.70;1.00
12053;DHT22;6087;48.982;12.064;2023-04-23T09:09:15;12.80;1.00
12053;DHT22;6087;48.982;12.064;2023-04-23T09:11:43;12.70;1.00
12053;DHT22;6087;48.982;12.064;2023-04-23T09:14:10;12.70;1.00
12053;DHT22;6087;48.982;12.064;2023-04-23T09:16:38;12.80;1.00
12053;DHT22;6087;48.982;12.064;2023-04-23T09:19:08;12.90;1.00
12053;DHT22;6087;48.982;12.064;2023-04-23T09:21:37;12.90;1.00
12053;DHT22;6087;48.982;12.064;2023-04-23T09:24:05;12.90;1.00
12053;DHT22;6087;48.982;12.064;2023-04-23T09:26:32;12.90;1.00
12053;DHT22;6087;48.982;12.064;2023-04-23T09:29:00;12.90;1.00
12053;DHT22;6087;48.982;12.064;2023-04-23T09:31:26;12.90;1.00
12053;DHT22;6087;48.982;12.064;2023-04-23T09:33:54;12.90;1.00
12053;DHT22;6087;48.982;12.064;2023-04-23T09:36:21;12.90;1.00
12053;DHT22;6087;48.982;12.064;2023-04-23T09:38:55;12.90;1.00
12053;DHT22;6087;48.982;12.064;2023-04-23T09:41:23;13.00;1.00
12053;DHT22;6087;48.982;12.064;2023-04-23T09:43:54;13.00;1.00
12053;DHT22;6087;48.982;12.064;2023-04-23T09:46:35;13.00;1.00
12053;DHT22;6087;48.982;12.064;2023-04-23T09:49:03;13.00;1.70
12053;DHT22;6087;48.982;12.064;2023-04-23T09:51:34;12.90;1.00
12053;DHT22;6087;48.982;12.064;2023-04-23T09:54:02;12.90;13.10
12053;DHT22;6087;48.982;12.064;2023-04-23T09:56:30;12.90;1.00
12053;DHT22;6087;48.982;12.064;2023-04-23T09:58:57;12.90;1.00
12053;DHT22;6087;48.982;12.064;2023-04-23T10:01:27;13.00;1.00
12053;DHT22;6087;48.982;12.064;2023-04-23T10:03:55;12.90;1.00
12053;DHT22;6087;48.982;12.064;2023-04-23T10:06:27;12.80;1.00
12053;DHT22;6087;48.982;12.064;2023-04-23T10:08:56;12.80;1.00
12053;DHT22;6087;48.982;12.064;2023-04-23T10:11:25;12.70;1.00
12053;DHT22;6087;48.982;12.064;2023-04-23T10:13:54;12.80;1.00
12053;DHT22;6087;48.982;12.064;2023-04-23T10:16:21;12.80;1.00
12053;DHT22;6087;48.982;12.064;2023-04-23T10:18:50;12.80;1.00
12053;DHT22;6087;48.982;12.064;2023-04-23T10:21:19;12.80;1.00
12053;DHT22;6087;48.982;12.064;2023-04-23T10:23:46;12.80;1.00
12053;DHT22;6087;48.982;12.064;2023-04-23T10:26:16;12.80;1.00
12053;DHT22;6087;48.982;12.064;2023-04-23T10:28:46;12.80;1.00
12053;DHT22;6087;48.982;12.064;2023-04-23T10:31:14;12.80;1.00
12053;DHT22;6087;48.982;12.064;2023-04-23T10:33:42;12.80;1.00
12053;DHT22;6087;48.982;12.064;2023-04-23T10:36:10;12.80;1.00
12053;DHT22;6087;48.982;12.064;2023-04-23T10:38:38;12.90;1.00
12053;DHT22;6087;48.982;12.064;2023-04-23T10:41:06;12.80;1.00
12053;DHT22;6087;48.982;12.064;2023-04-23T10:43:34;12.80;1.00
12053;DHT22;6087;48.982;12.064;2023-04-23T10:46:03;12.80;1.00
12053;DHT22;6087;48.982;12.064;2023-04-23T10:48:50;12.80;1.00
12053;DHT22;6087;48.982;12.064;2023-04-23T10:51:17;12.80;1.00
12053;DHT22;6087;48.982;12.064;2023-04-23T10:53:44;12.80;1.00
12053;DHT22;6087;48.982;12.064;2023-04-23T10:56:11;12.80;1.00
12053;DHT22;6087;48.982;12.064;2023-04-23T10:58:47;12.80;1.00
12053;DHT22;6087;48.982;12.064;2023-04-23T11:01:17;12.90;1.00
12053;DHT22;6087;48.982;12.064;2023-04-23T11:03:45;12.90;1.00
12053;DHT22;6087;48.982;12.064;2023-04-23T11:06:13;12.80;1.00
12053;DHT22;6087;48.982;12.064;2023-04-23T11:08:50;12.80;1.00
12053;DHT22;6087;48.982;12.064;2023-04-23T11:11:18;12.80;1.00
12053;DHT22;6087;48.982;12.064;2023-04-23T11:13:50;12.80;1.00
12053;DHT22;6087;48.982;12.064;2023-04-23T11:16:22;12.80;1.00
12053;DHT22;6087;48.982;12.064;2023-04-23T11:18:59;12.90;1.00
12053;DHT22;6087;48.982;12.064;2023-04-23T11:21:59;13.00;1.00
12053;DHT22;6087;48.982;12.064;2023-04-23T11:24:27;13.10;1.00
12053;DHT22;6087;48.982;12.064;2023-04-23T11:26:55;13.20;1.00
12053;DHT22;6087;48.982;12.064;2023-04-23T11:29:23;13.30;1.00
12053;DHT22;6087;48.982;12.064;2023-04-23T11:31:53;13.40;1.00
12053;DHT22;6087;48.982;12.064;2023-04-23T11:34:21;13.50;1.00
12053;DHT22;6087;48.982;12.064;2023-04-23T11:36:50;13.50;1.00
12053;DHT22;6087;48.982;12.064;2023-04-23T11:39:18;13.50;1.00
12053;DHT22;6087;48.982;12.064;2023-04-23T11:41:45;13.60;1.00
12053;DHT22;6087;48.982;12.064;2023-04-23T11:44:12;13.70;1.00
12053;DHT22;6087;48.982;12.064;2023-04-23T11:46:39;13.80;1.00
12053;DHT22;6087;48.982;12.064;2023-04-23T11:49:08;14.00;1.00
12053;DHT22;6087;48.982;12.064;2023-04-23T11:51:40;14.20;99.90
12053;DHT22;6087;48.982;12.064;2023-04-23T11:54:08;14.40;99.90
12053;DHT22;6087;48.982;12.064;2023-04-23T11:56:35;14.50;99.90
12053;DHT22;6087;48.982;12.064;2023-04-23T11:59:03;14.70;99.90
12053;DHT22;6087;48.982;12.064;2023-04-23T12:01:43;14.90;99.90
12053;DHT22;6087;48.982;12.064;2023-04-23T12:04:14;15.10;99.90
12053;DHT22;6087;48.982;12.064;2023-04-23T12:06:43;15.30;99.90
12053;DHT22;6087;48.982;12.064;2023-04-23T12:09:11;15.50;1.00
12053;DHT22;6087;48.982;12.064;2023-04-23T12:11:39;15.70;99.90
12053;DHT22;6087;48.982;12.064;2023-04-23T12:14:06;15.80;1.00
12053;DHT22;6087;48.982;12.064;2023-04-23T12:16:36;15.90;99.90
12053;DHT22;6087;48.982;12.064;2023-04-23T12:19:05;15.90;99.90
12053;DHT22;6087;48.982;12.064;2023-04-23T12:21:34;16.20;1.00
12053;DHT22;6087;48.982;12.064;2023-04-23T12:24:12;16.50;1.00
12053;DHT22;6087;48.982;12.064;2023-04-23T12:26:40;16.60;99.90
12053;DHT22;6087;48.982;12.064;2023-04-23T12:29:07;16.60;99.90
12053;DHT22;6087;48.982;12.064;2023-04-23T12:31:36;16.80;1.00
12053;DHT22;6087;48.982;12.064;2023-04-23T12:34:05;17.10;99.90
12053;DHT22;6087;48.982;12.064;2023-04-23T12:36:35;17.10;99.90
12053;DHT22;6087;48.982;12.064;2023-04-23T12:39:22;17.10;99.90
12053;DHT22;6087;48.982;12.064;2023-04-23T12:41:50;17.00;99.90
12053;DHT22;6087;48.982;12.064;2023-04-23T12:44:18;17.20;99.90
12053;DHT22;6087;48.982;12.064;2023-04-23T12:46:48;17.20;99.90
12053;DHT22;6087;48.982;12.064;2023-04-23T12:49:15;17.30;99.90
12053;DHT22;6087;48.982;12.064;2023-04-23T12:51:44;17.20;84.60
12053;DHT22;6087;48.982;12.064;2023-04-23T12:54:11;17.10;99.90
12053;DHT22;6087;48.982;12.064;2023-04-23T12:56:38;17.30;99.90
12053;DHT22;6087;48.982;12.064;2023-04-23T12:59:08;17.30;98.10
12053;DHT22;6087;48.982;12.064;2023-04-23T13:01:35;17.50;95.00
12053;DHT22;6087;48.982;12.064;2023-04-23T13:04:02;17.50;99.90
12053;DHT22;6087;48.982;12.064;2023-04-23T13:06:28;17.70;82.80
12053;DHT22;6087;48.982;12.064;2023-04-23T13:08:59;17.60;85.00
12053;DHT22;6087;48.982;12.064;2023-04-23T13:11:29;17.60;26.00
12053;DHT22;6087;48.982;12.064;2023-04-23T13:13:59;17.70;77.20
12053;DHT22;6087;48.982;12.064;2023-04-23T13:16:26;17.80;53.20
12053;DHT22;6087;48.982;12.064;2023-04-23T13:18:53;17.80;70.30
12053;DHT22;6087;48.982;12.064;2023-04-23T13:21:20;18.10;78.30
12053;DHT22;6087;48.982;12.064;2023-04-23T13:23:50;18.30;75.60
12053;DHT22;6087;48.982;12.064;2023-04-23T13:26:19;18.50;79.20
12053;DHT22;6087;48.982;12.064;2023-04-23T13:28:46;18.80;66.20
12053;DHT22;6087;48.982;12.064;2023-04-23T13:31:13;18.90;80.00
12053;DHT22;6087;48.982;12.064;2023-04-23T13:33:40;19.00;10.50
12053;DHT22;6087;48.982;12.064;2023-04-23T13:36:07;19.00;1.00
12053;DHT22;6087;48.982;12.064;2023-04-23T13:38:34;18.80;1.00
12053;DHT22;6087;48.982;12.064;2023-04-23T13:41:01;18.70;1.00
12053;DHT22;6087;48.982;12.064;2023-04-23T13:43:30;18.70;1.00
12053;DHT22;6087;48.982;12.064;2023-04-23T13:45:57;18.80;1.00
12053;DHT22;6087;48.982;12.064;2023-04-23T13:48:25;18.80;1.00
12053;DHT22;6087;48.982;12.064;2023-04-23T13:50:55;18.90;1.00
12053;DHT22;6087;48.982;12.064;2023-04-23T13:53:22;19.00;1.00
12053;DHT22;6087;48.982;12.064;2023-04-23T13:55:50;19.10;1.00
12053;DHT22;6087;48.982;12.064;2023-04-23T13:58:17;19.20;1.00
12053;DHT22;6087;48.982;12.064;2023-04-23T14:00:45;19.30;1.00
12053;DHT22;6087;48.982;12.064;2023-04-23T14:03:12;19.40;1.00
12053;DHT22;6087;48.982;12.064;2023-04-23T14:05:39;19.40;1.00
12053;DHT22;6087;48.982;12.064;2023-04-23T14:08:06;19.50;1.00
12053;DHT22;6087;48.982;12.064;2023-04-23T14:10:35;19.50;1.00
12053;DHT22;6087;48.982;12.064;2023-04-23T14:13:02;19.40;1.00
12053;DHT22;6087;48.982;12.064;2023-04-23T14:15:30;19.40;1.00
12053;DHT22;6087;48.982;12.064;2023-04-23T14:17:58;19.50;1.00
12053;DHT22;6087;48.982;12.064;2023-04-23T14:20:25;19.60;1.00
12053;DHT22;6087;48.982;12.064;2023-04-23T14:23:00;19.60;1.00
12053;DHT22;6087;48.982;12.064;2023-04-23T14:25:29;19.60;1.00
12053;DHT22;6087;48.982;12.064;2023-04-23T14:28:02;19.70;1.00
12053;DHT22;6087;48.982;12.064;2023-04-23T14:30:30;19.70;1.00
12053;DHT22;6087;48.982;12.064;2023-04-23T14:32:59;19.60;1.00
12053;DHT22;6087;48.982;12.064;2023-04-23T14:35:25;19.60;1.00
12053;DHT22;6087;48.982;12.064;2023-04-23T14:37:52;19.40;1.00
12053;DHT22;6087;48.982;12.064;2023-04-23T14:40:19;19.40;1.00
12053;DHT22;6087;48.982;12.064;2023-04-23T14:42:47;19.30;1.00
12053;DHT22;6087;48.982;12.064;2023-04-23T14:45:15;19.30;1.00
12053;DHT22;6087;48.982;12.064;2023-04-23T14:47:42;19.30;1.00
12053;DHT22;6087;48.982;12.064;2023-04-23T14:50:14;19.20;1.00
12053;DHT22;6087;48.982;12.064;2023-04-23T14:52:42;19.10;1.00
12053;DHT22;6087;48.982;12.064;2023-04-23T14:55:12;19.10;1.00
12053;DHT22;6087;48.982;12.064;2023-04-23T14:57:39;19.10;1.00
12053;DHT22;6087;48.982;12.064;2023-04-23T15:00:08;19.00;1.00
12053;DHT22;6087;48.982;12.064;2023-04-23T15:02:37;19.00;1.00
12053;DHT22;6087;48.982;12.064;2023-04-23T15:05:05;19.00;1.00
12053;DHT22;6087;48.982;12.064;2023-04-23T15:07:35;18.90;1.00
12053;DHT22;6087;48.982;12.064;2023-04-23T15:10:02;18.80;1.00
12053;DHT22;6087;48.982;12.064;2023-04-23T15:12:47;18.70;1.00
12053;DHT22;6087;48.982;12.064;2023-04-23T15:15:20;18.60;1.00
12053;DHT22;6087;48.982;12.064;2023-04-23T15:17:48;18.60;1.00
12053;DHT22;6087;48.982;12.064;2023-04-23T15:20:15;18.60;1.00
12053;DHT22;6087;48.982;12.064;2023-04-23T15:22:44;18.60;1.00
12053;DHT22;6087;48.982;12.064;2023-04-23T15:25:15;18.50;1.00
12053;DHT22;6087;48.982;12.064;2023-04-23T15:27:42;18.50;1.00
12053;DHT22;6087;48.982;12.064;2023-04-23T15:30:11;18.50;4.20
12053;DHT22;6087;48.982;12.064;2023-04-23T15:32:38;18.60;2.30
12053;DHT22;6087;48.982;12.064;2023-04-23T15:35:05;18.60;5.10
12053;DHT22;6087;48.982;12.064;2023-04-23T15:37:32;18.60;17.70
12053;DHT22;6087;48.982;12.064;2023-04-23T15:40:00;18.60;7.60
12053;DHT22;6087;48.982;12.064;2023-04-23T15:42:27;18.60;2.40
12053;DHT22;6087;48.982;12.064;2023-04-23T15:44:54;18.60;5.00
12053;DHT22;6087;48.982;12.064;2023-04-23T15:47:21;18.60;4.60
12053;DHT22;6087;48.982;12.064;2023-04-23T15:49:49;18.50;9.80